Time;durP1;ratioP1;P1;durP2;ratioP2;P2;SDS_P1;SDS_P2;PMS_P1;PMS_P2;Temp;Humidity;BMP_temperature;BMP_pressure;BME280_temperature;BME280_humidity;BME280_pressure;Samples;Min_cycle;Max_cycle;Signal;HPM_P1;HPM_P2
2022/05/10 00:02:13;;;;;;;;;;;21.80;47.60;;;;;;5164155;27;19929;-59
2022/05/10 00:04:38;;;;;;;;;;;21.90;47.60;;;;;;5169756;27;19950;-58
2022/05/10 00:07:04;;;;;;;;;;;21.90;47.60;;;;;;5160072;27;19995;-59
2022/05/10 00:09:30;;;;;;;;;;;22.00;47.50;;;;;;5164395;27;19978;-59
2022/05/10 00:11:57;;;;;;;;;;;22.00;47.50;;;;;;5169974;27;19969;-59
2022/05/10 00:14:24;;;;;;;;;;;22.00;47.40;;;;;;5163531;27;19922;-57
2022/05/10 00:16:52;;;;;;;;;;;22.00;47.50;;;;;;5161563;27;20400;-58
2022/05/10 00:19:18;;;;;;;;;;;22.10;47.30;;;;;;5168826;27;20338;-57
2022/05/10 00:21:44;;;;;;;;;;;22.10;47.30;;;;;;5163966;27;19922;-57
2022/05/10 00:24:10;;;;;;;;;;;22.00;47.30;;;;;;5133969;27;19947;-56
2022/05/10 00:26:36;;;;;;;;;;;22.10;47.10;;;;;;5164252;27;20334;-58
2022/05/10 00:29:02;;;;;;;;;;;22.10;47.10;;;;;;5164007;27;19931;-59
2022/05/10 00:31:27;;;;;;;;;;;22.20;46.90;;;;;;5169355;27;19922;-58
2022/05/10 00:33:53;;;;;;;;;;;22.10;47.00;;;;;;5161358;27;19932;-58
2022/05/10 00:36:19;;;;;;;;;;;22.20;46.80;;;;;;5162523;27;19934;-58
2022/05/10 00:38:45;;;;;;;;;;;22.20;46.70;;;;;;5169151;27;19963;-57
2022/05/10 00:41:14;;;;;;;;;;;22.20;46.90;;;;;;5163992;27;20002;-57
2022/05/10 00:43:40;;;;;;;;;;;22.20;46.80;;;;;;5149890;27;19923;-57
2022/05/10 00:46:08;;;;;;;;;;;22.20;46.90;;;;;;5146787;27;20010;-60
2022/05/10 00:48:36;;;;;;;;;;;22.10;46.80;;;;;;5163865;27;19931;-59
2022/05/10 00:51:05;;;;;;;;;;;22.20;46.80;;;;;;5168560;27;19947;-60
2022/05/10 00:53:36;;;;;;;;;;;22.20;46.90;;;;;;5161104;27;19929;-59
2022/05/10 00:56:05;;;;;;;;;;;22.10;46.90;;;;;;5144362;27;19929;-58
2022/05/10 00:58:30;;;;;;;;;;;22.10;46.90;;;;;;5168678;27;19936;-58
2022/05/10 01:00:56;;;;;;;;;;;22.20;46.80;;;;;;5163412;27;19922;-60
2022/05/10 01:03:24;;;;;;;;;;;22.20;46.90;;;;;;5144863;27;19923;-60
2022/05/10 01:06:16;;;;;;;;;;;22.10;46.80;;;;;;5150546;27;19922;-58
2022/05/10 01:08:50;;;;;;;;;;;22.20;46.90;;;;;;5123459;27;19923;-58
2022/05/10 01:11:21;;;;;;;;;;;22.20;46.90;;;;;;5141928;27;20227;-57
2022/05/10 01:13:55;;;;;;;;;;;22.10;46.90;;;;;;5167947;27;19923;-60
2022/05/10 01:16:21;;;;;;;;;;;22.10;47.00;;;;;;5163081;27;19929;-59
2022/05/10 01:18:47;;;;;;;;;;;22.10;46.80;;;;;;5163312;27;19923;-60
2022/05/10 01:21:32;;;;;;;;;;;22.10;46.70;;;;;;5168668;27;20381;-60
2022/05/10 01:24:16;;;;;;;;;;;22.20;46.70;;;;;;5163436;27;19929;-60
2022/05/10 01:27:02;;;;;;;;;;;22.20;46.70;;;;;;5163396;27;19924;-59
2022/05/10 01:29:29;;;;;;;;;;;22.20;46.60;;;;;;5165666;27;20021;-58
2022/05/10 01:34:40;;;;;;;;;;;22.20;46.60;;;;;;5162609;27;19929;-59
2022/05/10 01:37:08;;;;;;;;;;;22.10;46.80;;;;;;5149606;27;19974;-60
2022/05/10 01:39:40;;;;;;;;;;;22.20;46.70;;;;;;5144251;27;20334;-58
2022/05/10 01:42:11;;;;;;;;;;;22.10;46.80;;;;;;5144497;27;20194;-60
2022/05/10 01:44:47;;;;;;;;;;;22.10;46.80;;;;;;5149070;27;19929;-59
2022/05/10 01:47:14;;;;;;;;;;;22.10;46.70;;;;;;5141653;27;19926;-60
2022/05/10 01:49:41;;;;;;;;;;;22.10;46.60;;;;;;5142596;27;20361;-56
2022/05/10 01:52:12;;;;;;;;;;;22.00;46.70;;;;;;5149188;27;20457;-60
2022/05/10 01:54:41;;;;;;;;;;;22.10;46.60;;;;;;5162628;27;20124;-58
2022/05/10 01:57:11;;;;;;;;;;;22.00;46.70;;;;;;5168071;27;20279;-59
2022/05/10 01:59:37;;;;;;;;;;;22.10;46.60;;;;;;5163149;27;20014;-59
2022/05/10 02:02:03;;;;;;;;;;;22.10;46.70;;;;;;5162413;27;19936;-57
2022/05/10 02:04:30;;;;;;;;;;;22.00;46.80;;;;;;5167240;27;20198;-58
2022/05/10 02:07:09;;;;;;;;;;;22.10;46.60;;;;;;5141205;27;19922;-59
2022/05/10 02:09:36;;;;;;;;;;;22.00;46.60;;;;;;5143217;27;20318;-57
2022/05/10 02:12:03;;;;;;;;;;;22.10;46.50;;;;;;5147134;27;19923;-57
2022/05/10 02:14:38;;;;;;;;;;;22.00;46.70;;;;;;5162303;27;19937;-60
2022/05/10 02:17:04;;;;;;;;;;;22.10;46.50;;;;;;5143493;27;20336;-59
2022/05/10 02:19:34;;;;;;;;;;;22.00;46.70;;;;;;5167576;27;19926;-58
2022/05/10 02:22:05;;;;;;;;;;;22.10;46.60;;;;;;5162186;27;19933;-58
2022/05/10 02:24:33;;;;;;;;;;;22.00;46.60;;;;;;5140662;27;20025;-57
2022/05/10 02:27:03;;;;;;;;;;;22.00;46.60;;;;;;5166388;27;19923;-60
2022/05/10 02:29:31;;;;;;;;;;;22.00;46.50;;;;;;5143112;27;19974;-60
2022/05/10 02:34:53;;;;;;;;;;;22.00;46.50;;;;;;5113744;27;19933;-59
2022/05/10 02:37:19;;;;;;;;;;;22.00;46.40;;;;;;5161971;27;19923;-59
2022/05/10 02:39:45;;;;;;;;;;;22.00;46.40;;;;;;5167587;27;19971;-57
2022/05/10 02:42:11;;;;;;;;;;;22.00;46.50;;;;;;5160007;27;19979;-59
2022/05/10 02:44:37;;;;;;;;;;;22.00;46.40;;;;;;5141744;27;19927;-60
2022/05/10 02:47:03;;;;;;;;;;;22.00;46.20;;;;;;5148125;27;20013;-58
2022/05/10 02:49:29;;;;;;;;;;;22.00;46.00;;;;;;5161618;27;19933;-59
2022/05/10 02:51:56;;;;;;;;;;;22.00;46.10;;;;;;5161613;27;20046;-58
2022/05/10 02:54:21;;;;;;;;;;;22.00;46.10;;;;;;5167186;27;19934;-60
2022/05/10 02:56:47;;;;;;;;;;;22.10;46.00;;;;;;5161742;27;20331;-59
2022/05/10 02:59:23;;;;;;;;;;;22.00;46.00;;;;;;5146006;27;19923;-55
2022/05/10 03:01:48;;;;;;;;;;;22.00;46.20;;;;;;5145234;27;20356;-59
2022/05/10 03:04:14;;;;;;;;;;;22.00;46.20;;;;;;5160923;27;19927;-58
2022/05/10 03:06:40;;;;;;;;;;;22.10;46.20;;;;;;5146789;27;20389;-60
2022/05/10 03:09:06;;;;;;;;;;;22.10;46.20;;;;;;5140848;27;20059;-60
2022/05/10 03:11:32;;;;;;;;;;;22.10;46.20;;;;;;5161510;27;20394;-59
2022/05/10 03:13:59;;;;;;;;;;;22.10;46.10;;;;;;5167886;27;19929;-59
2022/05/10 03:16:25;;;;;;;;;;;22.00;46.10;;;;;;5165809;27;20021;-60
2022/05/10 03:18:51;;;;;;;;;;;22.00;46.10;;;;;;5163336;27;20074;-59
2022/05/10 03:21:17;;;;;;;;;;;22.00;46.10;;;;;;5149944;27;19923;-59
2022/05/10 03:23:43;;;;;;;;;;;22.00;46.20;;;;;;5164904;27;19966;-58
2022/05/10 03:26:13;;;;;;;;;;;22.00;46.20;;;;;;5170407;27;19929;-58
2022/05/10 03:28:38;;;;;;;;;;;22.00;46.20;;;;;;5165436;27;20433;-59
2022/05/10 03:31:05;;;;;;;;;;;22.00;46.10;;;;;;5146445;27;19978;-58
2022/05/10 03:33:30;;;;;;;;;;;22.00;46.00;;;;;;5151938;27;19936;-59
2022/05/10 03:35:56;;;;;;;;;;;22.00;46.00;;;;;;5164836;27;19923;-59
2022/05/10 03:38:22;;;;;;;;;;;22.00;45.90;;;;;;5161819;27;19942;-60
2022/05/10 03:40:48;;;;;;;;;;;22.00;45.90;;;;;;5169292;27;19926;-59
2022/05/10 03:43:13;;;;;;;;;;;22.00;46.00;;;;;;5164502;27;19926;-56
2022/05/10 03:45:39;;;;;;;;;;;22.00;45.90;;;;;;5168134;27;20017;-56
2022/05/10 03:48:05;;;;;;;;;;;21.90;46.00;;;;;;5167455;27;20385;-60
2022/05/10 03:50:31;;;;;;;;;;;21.90;46.00;;;;;;5164774;27;19979;-60
2022/05/10 03:52:57;;;;;;;;;;;22.00;45.90;;;;;;5170042;27;19922;-59
2022/05/10 03:55:24;;;;;;;;;;;21.90;45.80;;;;;;5162920;27;20371;-59
2022/05/10 03:57:50;;;;;;;;;;;21.90;45.80;;;;;;5162452;27;20382;-58
2022/05/10 04:00:17;;;;;;;;;;;22.00;45.70;;;;;;5169492;27;19927;-58
2022/05/10 04:02:43;;;;;;;;;;;22.10;45.60;;;;;;5164325;27;20449;-59
2022/05/10 04:05:09;;;;;;;;;;;22.00;45.70;;;;;;5164209;27;20017;-56
2022/05/10 04:07:34;;;;;;;;;;;22.00;45.70;;;;;;5169771;27;19927;-60
2022/05/10 04:10:00;;;;;;;;;;;22.00;45.90;;;;;;5164605;27;19923;-59
2022/05/10 04:12:26;;;;;;;;;;;22.00;45.80;;;;;;5169972;27;19930;-60
2022/05/10 04:14:52;;;;;;;;;;;22.00;45.80;;;;;;5161487;27;19926;-58
2022/05/10 04:17:18;;;;;;;;;;;22.00;45.70;;;;;;5163439;27;20003;-59
2022/05/10 04:19:43;;;;;;;;;;;22.00;45.70;;;;;;5169653;27;19966;-58
2022/05/10 04:22:09;;;;;;;;;;;22.00;45.50;;;;;;5164041;27;19930;-60
2022/05/10 04:24:35;;;;;;;;;;;22.00;45.60;;;;;;5163655;27;19927;-60
2022/05/10 04:27:01;;;;;;;;;;;22.00;45.40;;;;;;5150942;27;19923;-59
2022/05/10 04:29:27;;;;;;;;;;;22.00;45.40;;;;;;5164321;27;19946;-59
2022/05/10 04:31:53;;;;;;;;;;;21.90;45.50;;;;;;5168207;27;19923;-57
2022/05/10 04:34:18;;;;;;;;;;;21.90;45.50;;;;;;5161732;27;20272;-60
2022/05/10 04:36:44;;;;;;;;;;;21.90;45.40;;;;;;5163457;27;19975;-59
2022/05/10 04:39:10;;;;;;;;;;;22.00;45.40;;;;;;5169296;27;20362;-59
2022/05/10 04:41:37;;;;;;;;;;;22.00;45.40;;;;;;5163744;27;19926;-60
2022/05/10 04:44:03;;;;;;;;;;;22.00;45.30;;;;;;5163736;27;19954;-59
2022/05/10 04:46:35;;;;;;;;;;;22.00;45.30;;;;;;5150566;27;20334;-60
2022/05/10 04:49:01;;;;;;;;;;;22.00;45.40;;;;;;5163816;27;19927;-57
2022/05/10 04:51:27;;;;;;;;;;;22.00;45.40;;;;;;5164548;27;20374;-59
2022/05/10 04:53:52;;;;;;;;;;;22.00;45.50;;;;;;5164828;27;20396;-58
2022/05/10 04:56:18;;;;;;;;;;;22.00;45.70;;;;;;5163250;27;20536;-59
2022/05/10 04:58:44;;;;;;;;;;;22.00;45.70;;;;;;5169141;27;19955;-59
2022/05/10 05:01:11;;;;;;;;;;;21.90;45.80;;;;;;5163042;27;19927;-59
2022/05/10 05:03:37;;;;;;;;;;;21.80;46.10;;;;;;5143484;27;19931;-60
2022/05/10 05:06:03;;;;;;;;;;;21.80;46.00;;;;;;5168966;27;19927;-59
2022/05/10 05:08:29;;;;;;;;;;;21.80;45.90;;;;;;5161753;27;20042;-59
2022/05/10 05:10:56;;;;;;;;;;;21.80;46.10;;;;;;5161827;27;20426;-55
2022/05/10 05:13:23;;;;;;;;;;;21.80;46.30;;;;;;5168116;27;20305;-59
2022/05/10 05:15:49;;;;;;;;;;;21.80;46.50;;;;;;5162785;27;19936;-59
2022/05/10 05:18:15;;;;;;;;;;;21.80;46.60;;;;;;5168575;27;19922;-60
2022/05/10 05:20:42;;;;;;;;;;;21.80;46.90;;;;;;5162759;27;19922;-58
2022/05/10 05:23:09;;;;;;;;;;;21.80;47.10;;;;;;5163061;27;19923;-59
2022/05/10 05:25:35;;;;;;;;;;;21.80;47.00;;;;;;5168845;27;19922;-60
2022/05/10 05:28:01;;;;;;;;;;;21.80;46.90;;;;;;5160065;27;19923;-60
2022/05/10 05:30:27;;;;;;;;;;;21.90;46.80;;;;;;5161278;27;20433;-57
2022/05/10 05:32:53;;;;;;;;;;;22.00;46.70;;;;;;5168045;27;20080;-59
2022/05/10 05:35:19;;;;;;;;;;;22.00;46.70;;;;;;5162795;27;20018;-59
2022/05/10 05:37:44;;;;;;;;;;;22.00;46.70;;;;;;5167253;27;19927;-59
2022/05/10 05:40:11;;;;;;;;;;;22.00;46.80;;;;;;5144450;27;19926;-58
2022/05/10 05:42:37;;;;;;;;;;;22.00;46.70;;;;;;5162942;27;20472;-59
2022/05/10 05:45:04;;;;;;;;;;;22.00;46.80;;;;;;5167396;27;19922;-57
2022/05/10 05:47:30;;;;;;;;;;;22.00;47.00;;;;;;5159801;27;20026;-60
2022/05/10 05:49:56;;;;;;;;;;;22.10;46.80;;;;;;5161902;27;19930;-60
2022/05/10 05:52:22;;;;;;;;;;;22.10;46.70;;;;;;5167843;27;19930;-60
2022/05/10 05:54:51;;;;;;;;;;;22.10;46.90;;;;;;5162568;27;20017;-59
2022/05/10 05:57:16;;;;;;;;;;;22.20;46.80;;;;;;5165007;27;19936;-58
2022/05/10 05:59:42;;;;;;;;;;;22.20;47.00;;;;;;5165567;27;20021;-60
2022/05/10 06:02:15;;;;;;;;;;;22.20;47.20;;;;;;5162641;27;19927;-58
2022/05/10 06:04:41;;;;;;;;;;;22.20;47.00;;;;;;5165357;27;20357;-60
2022/05/10 06:07:09;;;;;;;;;;;22.30;46.80;;;;;;5160563;27;19943;-59
2022/05/10 06:09:36;;;;;;;;;;;22.30;46.70;;;;;;5126295;27;19923;-60
2022/05/10 06:12:02;;;;;;;;;;;22.40;46.50;;;;;;5167707;27;20340;-58
2022/05/10 06:14:29;;;;;;;;;;;21.50;47.90;;;;;;5161970;27;20221;-58
2022/05/10 06:16:55;;;;;;;;;;;21.10;47.80;;;;;;5162086;27;20206;-58
2022/05/10 06:19:21;;;;;;;;;;;21.20;49.50;;;;;;5167441;27;19923;-58
2022/05/10 06:21:47;;;;;;;;;;;21.30;49.60;;;;;;5161006;27;19930;-59
2022/05/10 06:24:12;;;;;;;;;;;21.50;48.90;;;;;;5164681;27;20409;-58
2022/05/10 06:26:38;;;;;;;;;;;21.60;48.70;;;;;;5161223;27;20040;-58
2022/05/10 06:29:04;;;;;;;;;;;21.50;48.60;;;;;;5126013;27;20524;-57
2022/05/10 06:31:30;;;;;;;;;;;21.50;48.60;;;;;;5148868;27;19923;-59
2022/05/10 06:33:55;;;;;;;;;;;21.60;48.40;;;;;;5161694;27;19931;-59
2022/05/10 06:36:21;;;;;;;;;;;21.60;48.50;;;;;;5142718;27;20309;-58
2022/05/10 06:38:47;;;;;;;;;;;21.60;48.50;;;;;;5167409;27;19923;-60
2022/05/10 06:41:13;;;;;;;;;;;21.60;48.60;;;;;;5159175;27;19923;-59
2022/05/10 06:43:39;;;;;;;;;;;21.60;48.40;;;;;;5165137;27;19956;-60
2022/05/10 06:46:08;;;;;;;;;;;21.60;48.60;;;;;;5162448;27;19927;-59
2022/05/10 06:48:34;;;;;;;;;;;21.60;48.60;;;;;;5163287;27;20352;-59
2022/05/10 06:51:03;;;;;;;;;;;21.60;48.40;;;;;;5171026;27;19949;-58
2022/05/10 06:53:29;;;;;;;;;;;21.60;48.40;;;;;;5165425;27;19923;-59
2022/05/10 06:55:55;;;;;;;;;;;21.60;48.30;;;;;;5165521;27;19934;-58
2022/05/10 06:58:21;;;;;;;;;;;21.70;48.30;;;;;;5170576;27;19941;-59
2022/05/10 07:00:46;;;;;;;;;;;21.60;48.40;;;;;;5162269;27;19934;-58
2022/05/10 07:03:13;;;;;;;;;;;21.60;48.60;;;;;;5164327;27;19923;-55
2022/05/10 07:05:42;;;;;;;;;;;21.70;48.50;;;;;;5151400;27;19970;-59
2022/05/10 07:08:09;;;;;;;;;;;21.60;48.60;;;;;;5145876;27;20372;-59
2022/05/10 07:10:35;;;;;;;;;;;21.70;48.50;;;;;;5170531;27;20032;-58
2022/05/10 07:13:00;;;;;;;;;;;21.80;48.50;;;;;;5165260;27;20025;-58
2022/05/10 07:15:26;;;;;;;;;;;21.70;48.50;;;;;;5165322;27;20009;-59
2022/05/10 07:17:52;;;;;;;;;;;21.40;48.20;;;;;;5168314;27;19927;-60
2022/05/10 07:20:18;;;;;;;;;;;21.00;47.50;;;;;;5163269;27;20396;-59
2022/05/10 07:22:44;;;;;;;;;;;20.80;47.30;;;;;;5164578;27;20010;-59
2022/05/10 07:25:11;;;;;;;;;;;21.30;49.30;;;;;;5170218;27;19936;-59
2022/05/10 07:27:37;;;;;;;;;;;21.40;49.90;;;;;;5164569;27;19922;-58
2022/05/10 07:30:03;;;;;;;;;;;21.60;49.70;;;;;;5151964;27;19983;-59
2022/05/10 07:32:29;;;;;;;;;;;21.50;49.90;;;;;;5164813;27;20429;-58
2022/05/10 07:34:54;;;;;;;;;;;21.60;50.00;;;;;;5164560;27;19971;-59
2022/05/10 07:37:20;;;;;;;;;;;21.60;50.30;;;;;;5148368;27;19923;-60
2022/05/10 07:39:46;;;;;;;;;;;21.60;50.30;;;;;;5163520;27;19945;-58
2022/05/10 07:42:12;;;;;;;;;;;21.70;49.80;;;;;;5144918;27;20222;-59
2022/05/10 07:44:37;;;;;;;;;;;21.70;49.70;;;;;;5170111;27;19922;-59
2022/05/10 07:47:03;;;;;;;;;;;21.70;49.60;;;;;;5164675;27;20382;-59
2022/05/10 07:49:29;;;;;;;;;;;21.80;49.40;;;;;;5168405;27;19923;-54
2022/05/10 07:51:55;;;;;;;;;;;21.80;49.40;;;;;;5166413;27;20021;-59
2022/05/10 07:54:21;;;;;;;;;;;21.80;49.70;;;;;;5143677;27;19975;-58
2022/05/10 07:56:46;;;;;;;;;;;21.80;49.50;;;;;;5167777;27;19934;-58
2022/05/10 07:59:12;;;;;;;;;;;21.80;49.60;;;;;;5163470;27;19927;-59
2022/05/10 08:01:38;;;;;;;;;;;21.90;49.10;;;;;;5143697;27;20373;-59
2022/05/10 08:04:04;;;;;;;;;;;22.00;48.90;;;;;;5169774;27;20308;-57
2022/05/10 08:06:30;;;;;;;;;;;22.00;48.80;;;;;;5164139;27;19931;-59
2022/05/10 08:08:55;;;;;;;;;;;22.00;48.70;;;;;;5165970;27;20423;-57
2022/05/10 08:11:22;;;;;;;;;;;21.90;48.70;;;;;;5168379;27;19926;-59
2022/05/10 08:13:48;;;;;;;;;;;21.90;48.70;;;;;;5141562;27;20901;-58
2022/05/10 08:16:14;;;;;;;;;;;21.90;48.60;;;;;;5168586;27;20021;-58
2022/05/10 08:18:41;;;;;;;;;;;22.00;48.50;;;;;;5145227;27;19956;-58
2022/05/10 08:21:07;;;;;;;;;;;22.00;48.20;;;;;;5163814;27;19963;-60
2022/05/10 08:23:34;;;;;;;;;;;22.00;48.10;;;;;;5169312;27;20267;-57
2022/05/10 08:25:59;;;;;;;;;;;22.00;47.70;;;;;;5163870;27;19979;-59
2022/05/10 08:28:26;;;;;;;;;;;20.60;50.10;;;;;;5144039;27;19970;-59
2022/05/10 08:30:52;;;;;;;;;;;20.20;52.30;;;;;;5167991;27;19923;-58
2022/05/10 08:33:23;;;;;;;;;;;21.20;49.80;;;;;;5161697;27;20044;-59
2022/05/10 08:35:49;;;;;;;;;;;21.60;48.50;;;;;;5169016;27;19963;-58
2022/05/10 08:38:15;;;;;;;;;;;21.80;48.10;;;;;;5163954;27;20471;-58
2022/05/10 08:40:53;;;;;;;;;;;21.80;48.20;;;;;;5164107;27;20373;-58
2022/05/10 08:43:42;;;;;;;;;;;21.80;47.90;;;;;;5169469;27;19934;-57
2022/05/10 08:46:09;;;;;;;;;;;21.90;47.60;;;;;;5117320;27;20305;-58
2022/05/10 08:48:34;;;;;;;;;;;22.00;47.50;;;;;;5144135;27;20405;-58
2022/05/10 08:51:00;;;;;;;;;;;22.00;47.40;;;;;;5147200;27;19954;-56
2022/05/10 08:53:26;;;;;;;;;;;21.90;47.60;;;;;;5144550;27;19923;-59
2022/05/10 08:56:00;;;;;;;;;;;21.90;48.10;;;;;;5145201;27;20025;-59
2022/05/10 08:58:30;;;;;;;;;;;21.90;48.00;;;;;;5150620;27;19923;-57
2022/05/10 09:00:55;;;;;;;;;;;22.10;47.60;;;;;;5143245;27;19933;-48
2022/05/10 09:03:38;;;;;;;;;;;21.90;47.10;;;;;;5164339;27;20390;-55
2022/05/10 09:06:27;;;;;;;;;;;20.30;50.90;;;;;;5151061;27;19923;-54
2022/05/10 09:08:59;;;;;;;;;;;20.10;51.60;;;;;;5162035;27;19923;-54
2022/05/10 09:11:26;;;;;;;;;;;21.30;49.30;;;;;;5163058;27;19931;-54
2022/05/10 09:13:52;;;;;;;;;;;21.70;48.20;;;;;;5150271;27;19955;-52
2022/05/10 09:16:18;;;;;;;;;;;21.80;47.90;;;;;;5146117;27;20037;-53
2022/05/10 09:18:53;;;;;;;;;;;21.80;47.90;;;;;;5164476;27;19923;-53
2022/05/10 09:21:23;;;;;;;;;;;21.80;47.90;;;;;;5150552;27;19982;-53
2022/05/10 09:24:03;;;;;;;;;;;21.50;47.60;;;;;;5164865;27;19953;-50
2022/05/10 09:26:39;;;;;;;;;;;21.20;46.80;;;;;;5144010;27;19922;-52
2022/05/10 09:29:23;;;;;;;;;;;21.30;45.70;;;;;;5167795;27;20013;-52
2022/05/10 09:34:47;;;;;;;;;;;21.70;48.30;;;;;;5161621;27;20021;-57
2022/05/10 09:37:31;;;;;;;;;;;21.90;47.50;;;;;;5147923;27;20368;-52
2022/05/10 09:39:57;;;;;;;;;;;22.00;46.70;;;;;;5164189;27;20014;-53
2022/05/10 09:42:33;;;;;;;;;;;22.00;46.20;;;;;;5164366;27;19929;-51
2022/05/10 09:45:04;;;;;;;;;;;22.10;45.70;;;;;;5162515;27;20099;-53
2022/05/10 09:47:30;;;;;;;;;;;22.20;45.50;;;;;;5142259;27;19927;-52
2022/05/10 09:50:09;;;;;;;;;;;22.10;45.70;;;;;;5163164;27;20688;-57
2022/05/10 09:52:35;;;;;;;;;;;22.10;45.70;;;;;;5168389;27;19929;-57
2022/05/10 09:55:01;;;;;;;;;;;20.50;49.00;;;;;;5144806;27;20293;-53
2022/05/10 09:57:27;;;;;;;;;;;19.90;50.70;;;;;;5128125;27;19926;-52
2022/05/10 09:59:53;;;;;;;;;;;21.00;48.60;;;;;;5168704;27;19929;-49
2022/05/10 10:02:30;;;;;;;;;;;21.60;46.90;;;;;;5163817;27;20362;-51
2022/05/10 10:04:55;;;;;;;;;;;21.80;46.30;;;;;;5166106;27;19989;-56
2022/05/10 10:07:24;;;;;;;;;;;22.00;45.90;;;;;;5164380;27;19923;-52
2022/05/10 10:09:51;;;;;;;;;;;22.00;45.80;;;;;;5163879;27;20071;-51
2022/05/10 10:12:26;;;;;;;;;;;22.10;45.70;;;;;;5168371;27;20013;-51
2022/05/10 10:14:52;;;;;;;;;;;22.10;45.80;;;;;;5164022;27;20364;-52
2022/05/10 10:17:38;;;;;;;;;;;22.10;46.20;;;;;;5164290;27;19930;-51
2022/05/10 10:20:11;;;;;;;;;;;22.10;46.10;;;;;;5167644;27;19926;-50
2022/05/10 10:22:38;;;;;;;;;;;22.20;45.70;;;;;;5161090;27;19929;-49
2022/05/10 10:25:08;;;;;;;;;;;22.20;45.40;;;;;;5162044;27;19922;-54
2022/05/10 10:27:36;;;;;;;;;;;21.30;46.90;;;;;;5167801;27;19929;-50
2022/05/10 10:30:04;;;;;;;;;;;19.80;50.80;;;;;;5162952;27;19927;-48
2022/05/10 10:32:33;;;;;;;;;;;20.50;50.20;;;;;;5162327;27;20225;-47
2022/05/10 10:35:02;;;;;;;;;;;21.50;47.30;;;;;;5128277;27;21019;-52
2022/05/10 10:37:33;;;;;;;;;;;21.80;46.00;;;;;;5142099;27;19929;-50
2022/05/10 10:40:02;;;;;;;;;;;22.00;45.60;;;;;;5139847;27;20010;-55
2022/05/10 10:42:29;;;;;;;;;;;22.00;45.40;;;;;;5145372;27;19923;-52
2022/05/10 10:44:58;;;;;;;;;;;22.00;45.30;;;;;;5122909;27;20370;-52
2022/05/10 10:47:27;;;;;;;;;;;22.10;45.10;;;;;;5146638;27;20006;-52
2022/05/10 10:50:10;;;;;;;;;;;22.00;45.10;;;;;;5141887;27;20669;-55
2022/05/10 10:52:35;;;;;;;;;;;22.10;45.10;;;;;;5122798;27;20461;-54
2022/05/10 10:55:02;;;;;;;;;;;22.20;45.00;;;;;;5128150;27;19931;-51
2022/05/10 10:57:48;;;;;;;;;;;22.20;45.00;;;;;;5122063;27;19927;-50
2022/05/10 11:00:21;;;;;;;;;;;22.10;44.90;;;;;;5120067;27;19924;-49
2022/05/10 11:03:00;;;;;;;;;;;20.20;48.80;;;;;;5127600;27;20025;-47
2022/05/10 11:05:28;;;;;;;;;;;20.00;49.80;;;;;;5141896;27;20430;-46
2022/05/10 11:08:12;;;;;;;;;;;21.30;46.70;;;;;;5140781;27;20018;-47
2022/05/10 11:10:44;;;;;;;;;;;21.80;45.50;;;;;;5146320;27;19991;-47
2022/05/10 11:13:19;;;;;;;;;;;21.90;45.20;;;;;;5141635;27;20017;-51
2022/05/10 11:15:47;;;;;;;;;;;22.00;45.00;;;;;;5140073;27;20313;-48
2022/05/10 11:18:24;;;;;;;;;;;22.00;44.90;;;;;;5124879;27;20427;-49
2022/05/10 11:20:50;;;;;;;;;;;22.10;44.60;;;;;;5140050;27;20026;-50
2022/05/10 11:23:23;;;;;;;;;;;22.20;44.20;;;;;;5141054;27;19934;-52
2022/05/10 11:25:58;;;;;;;;;;;21.90;43.50;;;;;;5111150;27;19934;-49
2022/05/10 11:28:24;;;;;;;;;;;20.10;47.10;;;;;;5140457;27;19927;-46
2022/05/10 11:30:58;;;;;;;;;;;20.80;45.10;;;;;;5140497;27;20378;-45
2022/05/10 11:33:42;;;;;;;;;;;21.00;43.50;;;;;;5145984;27;19927;-46
2022/05/10 11:36:22;;;;;;;;;;;21.30;43.60;;;;;;5139823;27;19923;-47
2022/05/10 11:38:51;;;;;;;;;;;21.70;44.70;;;;;;5123787;27;19924;-45
2022/05/10 11:41:36;;;;;;;;;;;21.90;44.10;;;;;;5149175;27;20298;-47
2022/05/10 11:44:15;;;;;;;;;;;22.00;43.60;;;;;;5143830;27;19933;-45
2022/05/10 11:47:00;;;;;;;;;;;22.00;43.50;;;;;;5123072;27;20330;-45
2022/05/10 11:49:44;;;;;;;;;;;22.10;43.20;;;;;;5149306;27;20422;-55
2022/05/10 11:52:23;;;;;;;;;;;22.20;42.80;;;;;;5149532;27;19927;-49
2022/05/10 11:54:59;;;;;;;;;;;20.80;45.10;;;;;;5122502;27;20017;-51
2022/05/10 11:57:25;;;;;;;;;;;19.90;46.90;;;;;;5124314;27;20064;-44
2022/05/10 11:59:51;;;;;;;;;;;21.00;44.30;;;;;;5148830;27;19931;-49
2022/05/10 12:02:29;;;;;;;;;;;21.70;43.00;;;;;;5125082;27;20211;-46
2022/05/10 12:05:13;;;;;;;;;;;21.90;42.60;;;;;;5148614;27;19971;-54
2022/05/10 12:07:48;;;;;;;;;;;22.10;42.10;;;;;;5149045;27;19930;-46
2022/05/10 12:10:33;;;;;;;;;;;22.20;41.90;;;;;;5144274;27;20362;-48
2022/05/10 12:13:00;;;;;;;;;;;22.10;41.30;;;;;;5140796;27;20033;-49
2022/05/10 12:21:22;;;;;;;;;;;21.80;42.10;;;;;;5143377;27;19975;-45
2022/05/10 12:24:04;;;;;;;;;;;21.90;41.80;;;;;;5148789;27;20407;-45
2022/05/10 12:26:49;;;;;;;;;;;22.10;41.50;;;;;;5143469;27;20051;-48
2022/05/10 12:29:37;;;;;;;;;;;22.20;41.50;;;;;;5119981;27;20026;-47
2022/05/10 12:32:05;;;;;;;;;;;22.20;41.50;;;;;;5145790;27;20344;-55
2022/05/10 12:34:56;;;;;;;;;;;22.20;41.60;;;;;;5146129;27;20338;-47
2022/05/10 12:37:22;;;;;;;;;;;20.60;44.70;;;;;;5142936;27;19929;-47
2022/05/10 12:39:57;;;;;;;;;;;20.00;45.80;;;;;;5146950;27;20271;-52
2022/05/10 12:42:32;;;;;;;;;;;21.30;43.10;;;;;;5148555;27;20047;-47
2022/05/10 12:45:02;;;;;;;;;;;21.80;42.00;;;;;;5143194;27;20320;-46
2022/05/10 12:47:47;;;;;;;;;;;22.00;41.60;;;;;;5147575;27;19927;-51
2022/05/10 12:50:21;;;;;;;;;;;22.10;41.40;;;;;;5145570;27;20264;-45
2022/05/10 12:52:48;;;;;;;;;;;22.10;41.30;;;;;;5121664;27;19924;-46
2022/05/10 12:55:24;;;;;;;;;;;22.20;41.20;;;;;;5147958;27;19924;-54
2022/05/10 12:58:03;;;;;;;;;;;22.20;41.00;;;;;;5147569;27;20009;-51
2022/05/10 13:00:34;;;;;;;;;;;22.30;40.90;;;;;;5124503;27;20458;-46
2022/05/10 13:03:05;;;;;;;;;;;20.70;44.10;;;;;;5128906;27;19931;-53
2022/05/10 13:05:50;;;;;;;;;;;20.00;46.00;;;;;;5145900;27;19927;-46
2022/05/10 13:08:25;;;;;;;;;;;21.30;43.30;;;;;;5139589;27;19999;-47
2022/05/10 13:10:51;;;;;;;;;;;21.80;42.20;;;;;;5143862;27;19978;-51
2022/05/10 13:13:19;;;;;;;;;;;22.00;41.70;;;;;;5146037;27;20362;-46
2022/05/10 13:15:45;;;;;;;;;;;22.10;41.40;;;;;;5142484;27;19929;-46
2022/05/10 13:18:22;;;;;;;;;;;22.20;41.30;;;;;;5147877;27;20343;-48
2022/05/10 13:20:48;;;;;;;;;;;22.20;41.10;;;;;;5142802;27;19923;-54
2022/05/10 13:23:14;;;;;;;;;;;22.30;40.90;;;;;;5143667;27;20014;-49
2022/05/10 13:25:40;;;;;;;;;;;20.70;44.30;;;;;;5145533;27;19930;-47
2022/05/10 13:28:13;;;;;;;;;;;20.30;45.60;;;;;;5122186;27;19973;-45
2022/05/10 13:30:40;;;;;;;;;;;21.50;43.10;;;;;;5142158;27;20331;-47
2022/05/10 13:33:06;;;;;;;;;;;21.80;42.20;;;;;;5147706;27;19945;-45
2022/05/10 13:35:33;;;;;;;;;;;21.80;42.10;;;;;;5141974;27;20414;-44
2022/05/10 13:37:58;;;;;;;;;;;21.30;42.00;;;;;;5143527;27;19923;-52
2022/05/10 13:40:24;;;;;;;;;;;21.30;41.40;;;;;;5146755;27;20010;-45
2022/05/10 13:42:50;;;;;;;;;;;21.70;42.80;;;;;;5140848;27;20398;-49
2022/05/10 13:45:20;;;;;;;;;;;21.90;42.60;;;;;;5144805;27;19927;-45
2022/05/10 13:47:48;;;;;;;;;;;22.00;42.20;;;;;;5122970;27;19971;-45
2022/05/10 13:50:18;;;;;;;;;;;22.10;41.90;;;;;;5141843;27;19923;-45
2022/05/10 13:52:46;;;;;;;;;;;22.20;41.80;;;;;;5128847;27;20414;-46
2022/05/10 13:55:15;;;;;;;;;;;22.20;41.70;;;;;;5144102;27;19930;-54
2022/05/10 13:57:47;;;;;;;;;;;21.00;44.20;;;;;;5122145;27;20026;-50
2022/05/10 14:00:13;;;;;;;;;;;20.10;46.40;;;;;;5147554;27;20450;-47
2022/05/10 14:02:38;;;;;;;;;;;20.50;46.00;;;;;;5139059;27;20006;-48
2022/05/10 14:05:11;;;;;;;;;;;22.10;42.40;;;;;;5143497;27;19931;-53
2022/05/10 14:07:37;;;;;;;;;;;21.80;42.70;;;;;;5128524;27;20334;-52
2022/05/10 14:10:10;;;;;;;;;;;21.10;44.20;;;;;;5142941;27;19970;-48
2022/05/10 14:12:36;;;;;;;;;;;20.80;45.00;;;;;;5147054;27;20390;-45
2022/05/10 14:15:09;;;;;;;;;;;20.80;45.10;;;;;;5124663;27;19923;-46
2022/05/10 14:17:35;;;;;;;;;;;20.70;45.30;;;;;;5143673;27;19931;-47
2022/05/10 14:20:07;;;;;;;;;;;20.70;45.40;;;;;;5127778;27;20426;-48
2022/05/10 14:22:33;;;;;;;;;;;20.60;45.60;;;;;;5121735;27;20362;-46
2022/05/10 14:24:58;;;;;;;;;;;20.60;45.70;;;;;;5142138;27;20018;-47
2022/05/10 14:27:25;;;;;;;;;;;20.70;45.70;;;;;;5147091;27;19923;-46
2022/05/10 14:29:53;;;;;;;;;;;20.50;46.10;;;;;;5142469;27;19927;-47
2022/05/10 14:32:19;;;;;;;;;;;20.50;46.10;;;;;;5142042;27;19930;-46
2022/05/10 14:34:48;;;;;;;;;;;20.40;46.60;;;;;;5147113;27;20279;-49
2022/05/10 14:37:37;;;;;;;;;;;20.50;46.40;;;;;;5123774;27;20449;-48
2022/05/10 14:40:21;;;;;;;;;;;20.40;46.30;;;;;;5125945;27;20010;-48
2022/05/10 14:43:06;;;;;;;;;;;20.60;46.10;;;;;;5146204;27;19927;-49